Time;durP1;ratioP1;P1;durP2;ratioP2;P2;SDS_P1;SDS_P2;PMS_P1;PMS_P2;Temp;Humidity;BMP_temperature;BMP_pressure;BME280_temperature;BME280_humidity;BME280_pressure;Samples;Min_cycle;Max_cycle;Signal;HPM_P1;HPM_P2
2023/04/12 00:03:36;;;;;;;6.18;2.50;;;;;;;12.14;47.57;99542.63;10409933;28;20059;-71
2023/04/12 00:08:37;;;;;;;3.67;2.05;;;;;;;11.70;47.65;99467.78;10412171;28;20559;-72
2023/04/12 00:13:39;;;;;;;6.07;1.75;;;;;;;12.10;47.60;99515.41;10410957;28;20049;-71
2023/04/12 00:18:41;;;;;;;4.00;1.63;;;;;;;12.10;47.42;99507.41;10410751;28;20415;-72
2023/04/12 00:23:43;;;;;;;6.25;1.92;;;;;;;12.06;47.48;99510.53;10411669;28;20080;-72
2023/04/12 00:28:45;;;;;;;4.57;1.75;;;;;;;11.94;47.50;99489.41;10400493;28;20083;-73
2023/04/12 00:33:46;;;;;;;4.78;1.50;;;;;;;11.91;48.08;99495.00;10411759;28;20076;-73
2023/04/12 00:38:48;;;;;;;5.32;1.40;;;;;;;11.91;47.88;99487.00;10410602;28;20717;-72
2023/04/12 00:43:50;;;;;;;4.75;1.70;;;;;;;11.96;48.08;99490.06;10411160;28;20055;-71
2023/04/12 00:48:51;;;;;;;7.03;2.08;;;;;;;11.99;48.37;99479.13;10408696;28;20121;-73
2023/04/12 00:53:58;;;;;;;4.20;1.25;;;;;;;12.05;48.87;99492.84;10408946;28;20045;-72
2023/04/12 00:59:00;;;;;;;4.63;1.60;;;;;;;12.06;49.45;99498.03;10409814;28;20076;-72
2023/04/12 01:04:03;;;;;;;6.22;2.03;;;;;;;11.83;51.50;99501.09;10409007;28;20574;-72
2023/04/12 01:09:19;;;;;;;6.45;1.30;;;;;;;11.48;55.15;99483.19;10407930;28;20068;-72
2023/04/12 01:14:31;;;;;;;4.15;1.13;;;;;;;11.40;56.78;99486.59;10409418;28;20268;-70
2023/04/12 01:19:53;;;;;;;4.18;1.80;;;;;;;11.31;58.17;99464.34;10410397;28;20500;-72
2023/04/12 01:24:54;;;;;;;4.80;1.58;;;;;;;11.27;58.57;99468.31;10407801;28;20716;-72
2023/04/12 01:29:58;;;;;;;5.90;1.80;;;;;;;11.17;60.61;99446.19;10411036;28;20044;-71
2023/04/12 01:35:02;;;;;;;2.85;1.60;;;;;;;11.15;61.62;99448.16;10396420;28;20445;-72
2023/04/12 01:40:06;;;;;;;2.78;1.33;;;;;;;11.01;62.93;99432.66;10407170;28;20049;-72
2023/04/12 01:45:08;;;;;;;4.75;1.77;;;;;;;10.97;62.79;99432.09;10405952;28;20458;-71
2023/04/12 01:50:20;;;;;;;4.13;1.20;;;;;;;11.01;64.04;99420.19;10408651;28;20925;-71
2023/04/12 01:55:24;;;;;;;4.53;1.45;;;;;;;10.95;64.88;99405.63;10415070;28;20316;-77
2023/04/12 02:00:26;;;;;;;4.10;1.65;;;;;;;10.91;65.96;99404.25;10430273;28;20037;-72
2023/04/12 02:05:28;;;;;;;4.40;1.60;;;;;;;10.80;66.63;99391.13;10427367;28;20558;-73
2023/04/12 02:10:30;;;;;;;3.40;1.45;;;;;;;10.72;67.87;99393.66;10422495;28;20174;-72
2023/04/12 02:15:33;;;;;;;4.63;1.67;;;;;;;10.71;67.33;99378.69;10420527;28;20087;-74
2023/04/12 02:20:34;;;;;;;4.40;1.67;;;;;;;10.66;68.88;99372.94;10414215;28;20062;-73
2023/04/12 02:25:37;;;;;;;4.65;1.80;;;;;;;10.58;69.74;99387.84;10411563;28;20068;-74
2023/04/12 02:30:40;;;;;;;3.33;1.77;;;;;;;10.33;70.98;99378.66;10408592;28;20044;-73
2023/04/12 02:35:41;;;;;;;3.95;1.88;;;;;;;10.44;71.16;99365.16;10408918;28;20111;-73
2023/04/12 02:40:44;;;;;;;4.00;1.80;;;;;;;10.29;72.42;99360.44;10410092;28;20193;-74
2023/04/12 02:45:46;;;;;;;6.88;2.60;;;;;;;10.22;73.30;99344.19;10408288;28;20095;-74
2023/04/12 02:50:47;;;;;;;3.83;1.80;;;;;;;10.26;73.21;99341.09;10406632;28;20041;-74
2023/04/12 02:55:49;;;;;;;3.78;1.63;;;;;;;10.26;73.28;99322.50;10406849;28;20391;-72
2023/04/12 03:00:50;;;;;;;8.00;2.60;;;;;;;10.39;73.06;99330.19;10406129;28;20045;-72
2023/04/12 03:05:52;;;;;;;4.82;2.75;;;;;;;10.35;72.96;99310.19;10406302;28;20052;-72
2023/04/12 03:10:54;;;;;;;6.65;2.72;;;;;;;10.30;73.50;99298.25;10407396;28;20063;-71
2023/04/12 03:15:58;;;;;;;7.70;2.65;;;;;;;10.15;74.54;99290.75;10412237;28;20664;-72
2023/04/12 03:21:01;;;;;;;4.00;2.22;;;;;;;10.21;74.83;99292.84;10415348;28;20499;-70
2023/04/12 03:26:02;;;;;;;7.25;2.90;;;;;;;10.20;75.55;99287.66;10411970;28;20053;-71
2023/04/12 03:31:04;;;;;;;5.80;2.58;;;;;;;10.22;75.90;99275.03;10415434;28;20053;-73
2023/04/12 03:36:06;;;;;;;7.72;2.78;;;;;;;10.27;75.88;99267.50;10413775;28;20123;-73
2023/04/12 03:41:07;;;;;;;5.95;2.55;;;;;;;10.26;75.86;99253.34;10399988;28;20088;-72
2023/04/12 03:46:09;;;;;;;4.72;2.33;;;;;;;10.12;76.74;99248.50;10413102;28;20069;-73
2023/04/12 03:51:11;;;;;;;6.30;2.60;;;;;;;10.09;76.59;99228.34;10413561;28;20420;-72
2023/04/12 03:56:12;;;;;;;6.60;2.70;;;;;;;10.14;77.25;99224.41;10412867;28;20053;-71
2023/04/12 04:01:14;;;;;;;5.53;1.95;;;;;;;10.11;77.49;99214.91;10412155;28;20056;-72
2023/04/12 04:06:16;;;;;;;5.63;2.50;;;;;;;10.08;77.87;99205.41;10412679;28;20726;-73
2023/04/12 04:11:17;;;;;;;5.10;2.35;;;;;;;10.01;78.06;99198.16;10411729;28;20051;-76
2023/04/12 04:16:19;;;;;;;5.80;2.00;;;;;;;10.05;78.31;99188.91;10404589;28;20288;-73
2023/04/12 04:21:21;;;;;;;2.90;1.58;;;;;;;9.96;78.46;99171.19;10410885;28;20098;-74
2023/04/12 04:26:31;;;;;;;5.72;2.35;;;;;;;10.04;78.82;99165.94;10411658;28;20067;-72
2023/04/12 04:31:35;;;;;;;5.28;1.77;;;;;;;10.01;79.06;99150.28;10414220;28;20053;-74
2023/04/12 04:36:37;;;;;;;3.90;1.83;;;;;;;10.05;79.09;99154.34;10413067;28;20542;-73
2023/04/12 04:41:39;;;;;;;4.45;1.90;;;;;;;10.02;79.48;99142.16;10410215;28;20044;-74
2023/04/12 04:46:41;;;;;;;3.97;1.98;;;;;;;9.93;79.42;99120.97;10408887;28;20103;-72
2023/04/12 04:51:42;;;;;;;3.22;1.80;;;;;;;9.86;80.36;99113.59;10405389;28;20064;-74
2023/04/12 04:56:44;;;;;;;5.53;2.00;;;;;;;9.90;80.70;99106.97;10410618;28;20256;-73
2023/04/12 05:01:45;;;;;;;3.28;1.58;;;;;;;9.86;80.85;99094.97;10409652;28;20112;-71
2023/04/12 05:06:47;;;;;;;3.45;1.60;;;;;;;9.91;81.54;99102.50;10411003;28;20179;-73
2023/04/12 05:11:48;;;;;;;3.90;1.80;;;;;;;9.89;81.32;99086.69;10410091;28;20053;-73
2023/04/12 05:16:50;;;;;;;5.10;1.80;;;;;;;9.90;81.38;99076.91;10408904;28;20055;-73
2023/04/12 05:21:51;;;;;;;4.20;1.80;;;;;;;9.92;81.32;99064.28;10410166;28;20053;-73
2023/04/12 05:26:53;;;;;;;2.42;1.60;;;;;;;9.90;81.48;99068.94;10410018;28;20471;-73
2023/04/12 05:31:54;;;;;;;3.75;1.70;;;;;;;9.82;81.39;99040.44;10410630;28;20072;-72
2023/04/12 05:36:57;;;;;;;2.85;1.33;;;;;;;9.81;81.93;99036.09;10407480;28;20100;-72
2023/04/12 05:41:59;;;;;;;4.45;1.50;;;;;;;9.90;81.84;99040.50;10411253;28;20056;-74
2023/04/12 05:47:00;;;;;;;2.25;1.40;;;;;;;9.83;81.83;99025.31;10409550;28;20049;-74
2023/04/12 05:52:02;;;;;;;2.90;1.33;;;;;;;9.73;82.18;99004.94;10411190;28;20388;-74
2023/04/12 05:57:03;;;;;;;2.67;1.40;;;;;;;9.82;82.42;98997.09;10409239;28;20137;-72
2023/04/12 06:02:06;;;;;;;4.18;1.80;;;;;;;9.77;82.44;98989.53;10406192;28;20079;-67
2023/04/12 06:07:08;;;;;;;3.25;1.50;;;;;;;9.80;82.56;98983.91;10405784;28;20052;-69
2023/04/12 06:12:10;;;;;;;2.88;1.60;;;;;;;9.77;83.11;98968.28;10405788;28;20487;-68
2023/04/12 06:17:11;;;;;;;2.25;1.42;;;;;;;9.76;83.04;98953.34;10407734;28;20057;-68
2023/04/12 06:22:13;;;;;;;3.00;1.50;;;;;;;9.80;82.96;98938.72;10404425;28;20068;-69
2023/04/12 06:27:15;;;;;;;2.78;1.98;;;;;;;9.70;83.07;98928.19;10407776;28;20049;-69
2023/04/12 06:32:16;;;;;;;3.28;1.50;;;;;;;9.79;83.09;98934.44;10408484;28;20052;-69
2023/04/12 06:37:18;;;;;;;1.92;1.08;;;;;;;9.85;82.83;98922.38;10404996;28;20049;-68
2023/04/12 06:42:19;;;;;;;2.40;1.60;;;;;;;9.76;83.09;98916.13;10407288;28;21736;-68
2023/04/12 06:47:21;;;;;;;2.63;1.30;;;;;;;9.83;83.68;98917.19;10446573;28;20072;-70
2023/04/12 06:52:26;;;;;;;4.28;1.35;;;;;;;9.71;83.73;98887.34;10465962;28;20045;-71
2023/04/12 06:57:28;;;;;;;2.92;1.70;;;;;;;9.76;84.43;98897.53;10407267;28;20587;-67
2023/04/12 07:02:29;;;;;;;2.95;1.35;;;;;;;9.79;84.33;98888.41;10391321;28;20531;-68
2023/04/12 07:07:31;;;;;;;2.10;1.23;;;;;;;9.70;84.65;98883.00;10393690;28;20058;-67
2023/04/12 07:12:32;;;;;;;2.55;1.20;;;;;;;9.77;85.33;98880.56;10400591;28;20049;-68
2023/04/12 07:17:34;;;;;;;2.58;1.15;;;;;;;9.73;85.14;98864.13;10398631;28;20053;-68
2023/04/12 07:22:35;;;;;;;2.03;0.93;;;;;;;9.76;86.08;98856.81;10401316;28;20108;-67
2023/04/12 07:27:37;;;;;;;2.67;1.10;;;;;;;9.79;85.51;98852.03;10396625;28;20592;-66
2023/04/12 07:32:38;;;;;;;2.25;1.15;;;;;;;9.80;85.46;98827.13;10398544;28;20094;-67
2023/04/12 07:37:40;;;;;;;2.35;1.17;;;;;;;9.89;85.77;98823.56;10394385;28;20051;-66
2023/04/12 07:42:41;;;;;;;1.55;0.98;;;;;;;9.97;86.25;98806.84;10400739;28;20493;-67
2023/04/12 07:47:43;;;;;;;1.77;1.00;;;;;;;9.93;85.03;98783.38;10412293;28;20056;-68
2023/04/12 07:52:44;;;;;;;4.15;1.58;;;;;;;9.88;86.63;98790.00;10395905;28;20172;-69
2023/04/12 07:57:46;;;;;;;1.85;1.23;;;;;;;9.86;86.65;98777.84;10390100;28;20506;-67
2023/04/12 08:02:47;;;;;;;3.13;1.00;;;;;;;9.92;87.10;98782.53;10393795;28;20501;-71
2023/04/12 08:07:49;;;;;;;1.67;1.05;;;;;;;9.85;88.61;98782.31;10376704;28;20104;-67
2023/04/12 08:12:51;;;;;;;3.47;3.17;;;;;;;9.96;88.01;98767.13;10385580;28;20060;-69
2023/04/12 08:17:52;;;;;;;1.95;1.75;;;;;;;10.00;88.77;98763.16;10395151;28;20052;-68
2023/04/12 08:22:53;;;;;;;5.43;4.68;;;;;;;9.94;88.23;98745.16;10391090;28;20130;-69
2023/04/12 08:27:55;;;;;;;6.55;6.05;;;;;;;10.01;88.49;98736.44;10393395;28;20056;-70
2023/04/12 08:32:57;;;;;;;15.98;14.25;;;;;;;10.07;88.77;98734.94;10390949;28;20049;-68
2023/04/12 08:38:05;;;;;;;30.63;24.90;;;;;;;10.15;89.05;98735.00;10394882;28;20102;-67
2023/04/12 08:43:10;;;;;;;2.42;1.58;;;;;;;10.10;88.90;98734.63;10389588;28;20094;-69
2023/04/12 08:48:12;;;;;;;;;;;;;;;10.13;89.41;98723.66;10394338;28;20428;-70
2023/04/12 08:53:13;;;;;;;55.78;34.00;;;;;;;10.10;90.00;98718.66;10394908;28;19924;-69
2023/04/12 08:58:15;;;;;;;101.68;63.08;;;;;;;10.07;89.85;98709.22;10388162;28;20900;-68
2023/04/12 09:03:17;;;;;;;86.30;58.88;;;;;;;10.05;90.88;98700.53;10394448;28;20049;-69
2023/04/12 09:08:19;;;;;;;88.32;63.45;;;;;;;10.02;90.75;98692.06;10391089;28;20055;-72
2023/04/12 09:13:35;;;;;;;6.15;5.50;;;;;;;10.04;91.77;98690.06;10391899;28;20467;-70
2023/04/12 09:18:50;;;;;;;8.18;7.43;;;;;;;9.96;92.46;98669.59;10390542;28;20502;-71
2023/04/12 09:24:02;;;;;;;7.63;7.03;;;;;;;10.05;92.85;98668.63;10391273;28;20059;-72
2023/04/12 09:29:04;;;;;;;3.17;2.58;;;;;;;10.07;92.37;98642.75;10392781;28;20049;-70
2023/04/12 09:34:09;;;;;;;4.93;4.45;;;;;;;10.22;92.85;98647.44;10391081;28;20613;-70
2023/04/12 09:39:11;;;;;;;6.50;6.00;;;;;;;10.25;92.24;98626.69;10390651;28;20044;-71
2023/04/12 09:44:33;;;;;;;10.90;9.80;;;;;;;10.36;92.83;98632.75;10381967;28;20435;-70
2023/04/12 09:49:39;;;;;;;3.90;3.50;;;;;;;10.37;92.76;98618.44;10387830;28;20522;-70
2023/04/12 09:54:45;;;;;;;2.63;1.98;;;;;;;10.43;92.44;98618.63;10382467;28;20056;-70
2023/04/12 09:59:49;;;;;;;10.25;9.27;;;;;;;10.44;93.29;98611.47;10385658;28;21247;-68
2023/04/12 10:04:51;;;;;;;3.70;3.37;;;;;;;10.57;94.11;98603.03;10389511;28;20095;-67
2023/04/12 10:09:57;;;;;;;16.98;14.95;;;;;;;10.63;93.45;98601.53;10371315;28;20583;-69
2023/04/12 10:15:02;;;;;;;5.32;3.65;;;;;;;10.72;93.67;98589.88;10383853;28;20219;-69
2023/04/12 10:20:04;;;;;;;4.13;3.22;;;;;;;10.74;94.16;98575.41;10395584;28;20578;-68
2023/04/12 10:25:14;;;;;;;3.70;2.40;;;;;;;10.81;94.70;98578.28;10379972;28;20153;-69
2023/04/12 10:30:27;;;;;;;3.30;2.72;;;;;;;10.72;95.69;98574.78;10375651;28;20136;-70
2023/04/12 10:35:47;;;;;;;3.92;2.45;;;;;;;10.86;95.40;98570.59;10373168;28;20199;-70
2023/04/12 10:41:13;;;;;;;3.42;2.33;;;;;;;11.00;96.08;98562.94;10379920;28;20057;-69
2023/04/12 10:46:46;;;;;;;4.95;2.65;;;;;;;11.05;95.95;98548.13;10380745;28;20510;-67
2023/04/12 10:52:08;;;;;;;4.03;2.40;;;;;;;11.09;95.53;98544.16;10382393;28;20057;-67
2023/04/12 10:57:46;;;;;;;4.00;3.30;;;;;;;11.09;95.44;98538.81;10381294;28;20459;-69
2023/04/12 11:03:04;;;;;;;4.03;2.50;;;;;;;11.15;95.85;98542.63;10384568;28;20051;-67
2023/04/12 11:08:06;;;;;;;3.95;2.35;;;;;;;11.19;95.48;98538.63;10378413;28;20053;-67
2023/04/12 11:13:08;;;;;;;4.97;3.10;;;;;;;11.27;95.37;98525.31;10384183;28;20037;-68
2023/04/12 11:18:10;;;;;;;3.70;2.83;;;;;;;11.41;95.88;98518.44;10390282;28;20500;-69
2023/04/12 11:23:11;;;;;;;2.65;2.38;;;;;;;11.38;95.73;98510.78;10384821;28;20053;-66
2023/04/12 11:28:17;;;;;;;4.63;3.00;;;;;;;11.53;96.81;98512.72;10381296;28;20049;-70
2023/04/12 11:33:34;;;;;;;3.92;2.80;;;;;;;11.61;95.86;98491.38;10390486;28;20599;-67
2023/04/12 11:38:36;;;;;;;3.72;2.80;;;;;;;11.79;95.09;98491.13;10392228;28;20049;-68
2023/04/12 11:43:38;;;;;;;4.00;2.72;;;;;;;11.91;94.89;98487.06;10390839;28;20052;-69
2023/04/12 11:48:44;;;;;;;3.72;2.95;;;;;;;11.98;94.89;98474.72;10390222;28;20123;-70
2023/04/12 11:53:51;;;;;;;10.98;8.98;;;;;;;12.20;94.52;98478.44;10393378;28;20496;-70
2023/04/12 11:58:53;;;;;;;8.40;6.18;;;;;;;12.12;95.36;98469.66;10392523;28;20060;-70
2023/04/12 12:03:55;;;;;;;6.28;4.38;;;;;;;12.26;95.07;98465.38;10393706;28;20068;-71
2023/04/12 12:08:57;;;;;;;4.22;3.50;;;;;;;12.17;95.76;98452.09;10386041;28;20182;-67
2023/04/12 12:13:59;;;;;;;3.67;2.50;;;;;;;12.24;95.61;98457.53;10387860;28;20532;-70
2023/04/12 12:19:04;;;;;;;5.22;3.58;;;;;;;12.31;95.36;98445.16;10387078;28;20052;-71
2023/04/12 12:24:06;;;;;;;4.47;3.28;;;;;;;12.35;nan;98443.78;10390381;28;20080;-67
2023/04/12 12:29:15;;;;;;;3.95;3.55;;;;;;;12.48;93.81;98445.03;10392620;28;20095;-68
2023/04/12 12:34:18;;;;;;;3.05;2.63;;;;;;;12.78;91.79;98442.41;10389347;28;20068;-69
2023/04/12 12:39:19;;;;;;;2.63;2.33;;;;;;;12.79;91.75;98450.25;10383534;28;20057;-68
2023/04/12 12:44:22;;;;;;;4.72;2.55;;;;;;;12.71;91.84;98437.78;10385048;28;20064;-69
2023/04/12 12:49:23;;;;;;;3.95;2.75;;;;;;;12.59;92.00;98433.91;10387270;28;20059;-68
2023/04/12 12:54:25;;;;;;;3.33;2.30;;;;;;;12.58;93.20;98442.94;10387932;28;20045;-70
2023/04/12 12:59:29;;;;;;;;;;;;;;;12.64;93.98;98439.53;10384715;28;20039;-68
2023/04/12 13:04:31;;;;;;;11.20;8.38;;;;;;;12.71;94.71;98436.97;10383684;28;19925;-68
2023/04/12 13:09:33;;;;;;;37.50;25.17;;;;;;;12.56;94.91;98434.25;10384279;28;20182;-67
2023/04/12 13:14:34;;;;;;;15.07;8.85;;;;;;;12.53;96.62;98424.78;10384898;28;20049;-70
2023/04/12 13:19:36;;;;;;;10.00;8.35;;;;;;;12.43;98.89;98434.03;10384353;28;20072;-69
2023/04/12 13:24:37;;;;;;;11.00;7.43;;;;;;;12.35;99.92;98435.75;10385813;28;20132;-71
2023/04/12 13:29:38;;;;;;;20.20;14.82;;;;;;;12.32;100.00;98433.47;10380131;28;20056;-68
2023/04/12 13:34:40;;;;;;;3.15;2.50;;;;;;;12.40;99.39;98415.72;10383905;28;20227;-71
2023/04/12 13:39:43;;;;;;;9.80;7.82;;;;;;;12.43;98.81;98415.38;10381288;28;20049;-73
2023/04/12 13:44:47;;;;;;;5.20;3.40;;;;;;;12.56;98.02;98418.25;10379909;28;20052;-68
2023/04/12 13:49:48;;;;;;;5.50;3.27;;;;;;;13.23;96.23;98408.53;10386862;28;20049;-68
2023/04/12 13:54:50;;;;;;;6.53;3.88;;;;;;;13.75;91.50;98379.97;10387293;28;20067;-69
2023/04/12 13:59:51;;;;;;;4.70;2.53;;;;;;;14.08;87.81;98406.22;10385233;28;20056;-69
2023/04/12 14:04:53;;;;;;;2.55;1.80;;;;;;;14.12;86.33;98407.50;10380968;28;20045;-71
2023/04/12 14:09:56;;;;;;;2.55;2.05;;;;;;;13.93;86.41;98408.94;10380445;28;20106;-70
2023/04/12 14:14:58;;;;;;;6.03;3.95;;;;;;;13.64;86.80;98412.56;10381429;28;20067;-70
2023/04/12 14:19:59;;;;;;;4.30;2.92;;;;;;;13.40;89.41;98403.84;10388935;28;20045;-68
2023/04/12 14:25:01;;;;;;;2.85;1.83;;;;;;;13.35;90.87;98391.03;10383445;28;20052;-70
2023/04/12 14:30:05;;;;;;;1.75;1.50;;;;;;;13.20;90.56;98377.66;10382433;28;20808;-72
2023/04/12 14:35:08;;;;;;;6.90;4.30;;;;;;;12.93;90.40;98392.53;10384025;28;20053;-69
2023/04/12 14:40:09;;;;;;;7.63;4.65;;;;;;;12.90;89.57;98400.91;10383590;28;20084;-70
2023/04/12 14:45:11;;;;;;;5.05;3.65;;;;;;;12.86;89.02;98407.63;10382494;28;20091;-73
2023/04/12 14:50:13;;;;;;;6.38;5.10;;;;;;;12.87;88.43;98419.97;10383296;28;20059;-71
2023/04/12 14:55:18;;;;;;;1.45;1.00;;;;;;;12.85;89.71;98435.31;10382569;28;20055;-70
2023/04/12 15:00:20;;;;;;;1.20;0.75;;;;;;;12.98;88.45;98411.47;10385072;28;21341;-72
2023/04/12 15:05:21;;;;;;;2.97;1.15;;;;;;;12.92;88.13;98433.59;10383999;28;20140;-70
2023/04/12 15:10:23;;;;;;;2.58;2.00;;;;;;;13.01;88.26;98421.78;10390351;28;20069;-71
2023/04/12 15:15:24;;;;;;;1.42;0.80;;;;;;;13.04;86.89;98410.75;10392594;28;20045;-68
2023/04/12 15:20:25;;;;;;;2.03;1.00;;;;;;;13.25;85.65;98423.34;10423270;28;20061;-70
2023/04/12 15:25:29;;;;;;;1.80;1.00;;;;;;;13.54;84.93;98431.56;10422051;28;20260;-68
2023/04/12 15:30:30;;;;;;;1.90;0.80;;;;;;;13.46;82.75;98427.16;10391635;28;20098;-69
2023/04/12 15:35:32;;;;;;;1.27;0.63;;;;;;;13.46;81.99;98439.69;10396411;28;20490;-71
2023/04/12 15:40:33;;;;;;;0.90;0.32;;;;;;;13.18;82.58;98438.50;10406768;28;20554;-70
2023/04/12 15:45:41;;;;;;;0.90;0.40;;;;;;;13.09;83.21;98440.41;10396421;28;20060;-69
2023/04/12 15:50:42;;;;;;;1.35;0.52;;;;;;;13.05;83.67;98439.13;10390884;28;20056;-71
2023/04/12 15:55:44;;;;;;;0.52;0.35;;;;;;;12.97;83.28;98449.91;10389899;28;20585;-70
2023/04/12 16:00:46;;;;;;;1.65;0.63;;;;;;;12.88;82.77;98443.81;10388594;28;20122;-70
2023/04/12 16:05:52;;;;;;;1.20;0.35;;;;;;;13.05;82.11;98460.47;10387292;28;20053;-72
2023/04/12 16:10:54;;;;;;;0.77;0.30;;;;;;;13.18;79.18;98469.69;10388951;28;20049;-70
2023/04/12 16:15:55;;;;;;;1.60;0.30;;;;;;;12.98;79.04;98467.56;10383544;28;20057;-72
2023/04/12 16:20:57;;;;;;;0.70;0.22;;;;;;;12.88;77.12;98475.00;10388726;28;20049;-71
2023/04/12 16:25:59;;;;;;;0.50;0.20;;;;;;;12.77;74.71;98473.63;10388709;28;20167;-71
2023/04/12 16:31:00;;;;;;;0.43;0.10;;;;;;;12.76;74.44;98469.31;10386755;28;20159;-67
2023/04/12 16:36:02;;;;;;;0.80;0.20;;;;;;;12.81;72.20;98474.09;10387898;28;20083;-71
2023/04/12 16:41:04;;;;;;;0.32;0.10;;;;;;;12.78;70.57;98477.94;10388423;28;20053;-69
2023/04/12 16:46:06;;;;;;;0.60;0.20;;;;;;;12.72;71.92;98460.81;10386597;28;20053;-68
2023/04/12 16:51:07;;;;;;;0.35;0.22;;;;;;;12.75;70.60;98466.81;10388074;28;22063;-72
2023/04/12 16:56:09;;;;;;;0.17;0.10;;;;;;;12.70;70.60;98457.50;10389204;28;20057;-67
2023/04/12 17:01:14;;;;;;;0.45;0.20;;;;;;;12.67;70.54;98451.69;10387704;28;20090;-69
2023/04/12 17:06:18;;;;;;;0.30;0.10;;;;;;;12.63;70.50;98455.75;10388774;28;20551;-71
2023/04/12 17:11:19;;;;;;;1.35;0.38;;;;;;;12.62;70.17;98454.91;10386861;28;20052;-71
2023/04/12 17:16:21;;;;;;;0.60;0.40;;;;;;;12.59;70.66;98465.13;10384387;28;20057;-70
2023/04/12 17:21:23;;;;;;;1.27;0.30;;;;;;;12.54;70.87;98457.66;10385751;28;20118;-70
2023/04/12 17:26:26;;;;;;;0.93;0.20;;;;;;;12.55;69.88;98473.47;10387531;28;20821;-69
2023/04/12 17:31:33;;;;;;;0.40;0.20;;;;;;;12.54;69.79;98484.34;10385649;28;20128;-68
2023/04/12 17:36:34;;;;;;;0.75;0.30;;;;;;;12.46;70.13;98487.06;10386510;28;20077;-69
2023/04/12 17:41:36;;;;;;;0.80;0.35;;;;;;;12.47;70.07;98488.72;10393844;28;20052;-69
2023/04/12 17:46:37;;;;;;;1.17;0.47;;;;;;;12.43;70.08;98490.09;10385092;28;20878;-68
2023/04/12 17:51:40;;;;;;;0.88;0.28;;;;;;;12.45;70.72;98498.75;10385120;28;20703;-72
2023/04/12 17:56:41;;;;;;;2.15;0.50;;;;;;;12.42;69.78;98507.13;10387156;28;20056;-71
2023/04/12 18:01:43;;;;;;;1.30;0.60;;;;;;;12.45;69.92;98525.44;10385905;28;20046;-70
2023/04/12 18:06:45;;;;;;;0.88;0.40;;;;;;;12.45;70.28;98520.94;10388509;28;20048;-69
2023/04/12 18:11:47;;;;;;;1.08;0.45;;;;;;;12.50;69.75;98526.53;10389915;28;20777;-70
2023/04/12 18:16:49;;;;;;;1.02;0.32;;;;;;;12.46;68.88;98535.09;10380050;28;20060;-67
2023/04/12 18:21:50;;;;;;;1.63;1.20;;;;;;;12.45;69.34;98554.78;10385981;28;20476;-71
2023/04/12 18:26:52;;;;;;;1.55;0.80;;;;;;;12.38;67.91;98560.84;10384226;28;20091;-68
2023/04/12 18:31:54;;;;;;;2.67;0.88;;;;;;;12.35;68.77;98571.03;10384222;28;20557;-67
2023/04/12 18:36:56;;;;;;;3.40;1.55;;;;;;;12.26;67.61;98578.22;10384675;28;20122;-69
2023/04/12 18:41:58;;;;;;;1.42;0.60;;;;;;;12.33;67.68;98589.88;10387698;28;20053;-71
2023/04/12 18:46:59;;;;;;;2.00;0.80;;;;;;;12.31;68.16;98597.22;10396159;28;20083;-69
2023/04/12 18:52:01;;;;;;;5.53;4.05;;;;;;;12.33;69.94;98605.06;10396569;28;20049;-69
2023/04/12 18:57:03;;;;;;;54.35;23.20;;;;;;;12.29;76.01;98641.09;10404076;28;20048;-67
2023/04/12 19:02:07;;;;;;;2.97;1.13;;;;;;;11.87;76.92;98688.38;10403022;28;20057;-69
2023/04/12 19:07:09;;;;;;;1.30;0.63;;;;;;;11.06;74.38;98730.84;10398075;28;20055;-69
2023/04/12 19:12:10;;;;;;;4.40;0.82;;;;;;;11.00;74.28;98760.78;10396525;28;20052;-68
2023/04/12 19:17:12;;;;;;;2.35;0.35;;;;;;;10.55;75.12;98776.13;10394042;28;20147;-70
2023/04/12 19:22:13;;;;;;;2.25;0.40;;;;;;;10.77;75.22;98774.69;10396759;28;20575;-74
2023/04/12 19:27:15;;;;;;;0.52;0.20;;;;;;;10.44;74.30;98765.75;10394389;28;20128;-71
2023/04/12 19:32:17;;;;;;;0.65;0.20;;;;;;;10.49;74.56;98750.13;10392598;28;20122;-68
2023/04/12 19:37:19;;;;;;;0.95;0.32;;;;;;;10.57;73.84;98739.53;10397997;28;20064;-70
2023/04/12 19:42:25;;;;;;;0.65;0.30;;;;;;;10.46;74.37;98749.63;10395136;28;20487;-71
2023/04/12 19:47:26;;;;;;;0.93;0.38;;;;;;;10.57;75.27;98726.25;10395182;28;20225;-72
2023/04/12 19:52:28;;;;;;;0.85;0.50;;;;;;;10.58;75.43;98733.25;10398863;28;20558;-69
2023/04/12 19:57:29;;;;;;;1.80;0.40;;;;;;;10.57;77.36;98734.22;10396422;28;20420;-69
2023/04/12 20:02:31;;;;;;;2.03;0.63;;;;;;;10.52;76.61;98728.53;10394068;28;20053;-70
2023/04/12 20:07:33;;;;;;;1.20;0.30;;;;;;;10.38;74.84;98726.50;10387836;28;20405;-69
2023/04/12 20:12:39;;;;;;;1.20;0.25;;;;;;;10.31;72.21;98718.28;10384966;28;20080;-68
2023/04/12 20:17:42;;;;;;;0.95;0.50;;;;;;;10.27;75.41;98719.59;10384008;28;20091;-68
2023/04/12 20:22:50;;;;;;;1.30;0.80;;;;;;;10.25;76.57;98725.09;10394556;28;20056;-74
2023/04/12 20:27:52;;;;;;;1.98;0.57;;;;;;;10.15;75.65;98728.84;10393860;28;20124;-69
2023/04/12 20:32:57;;;;;;;1.13;0.40;;;;;;;10.19;76.34;98754.13;10390889;28;20056;-69
2023/04/12 20:37:58;;;;;;;2.00;0.75;;;;;;;10.09;75.29;98754.25;10393822;28;20258;-68
2023/04/12 20:43:00;;;;;;;1.92;0.73;;;;;;;10.04;76.14;98752.06;10393575;28;20254;-68
2023/04/12 20:48:02;;;;;;;1.63;0.82;;;;;;;10.02;77.12;98756.69;10380482;28;20264;-72
2023/04/12 20:53:03;;;;;;;2.35;0.70;;;;;;;9.89;74.54;98766.88;10389867;28;20056;-70
2023/04/12 20:58:05;;;;;;;1.00;0.60;;;;;;;9.83;74.38;98770.19;10386416;28;20112;-69
2023/04/12 21:03:09;;;;;;;1.85;0.68;;;;;;;9.78;75.07;98772.47;10391228;28;20061;-69
2023/04/12 21:08:11;;;;;;;4.28;0.85;;;;;;;9.78;73.37;98793.72;10387906;28;20067;-71
2023/04/12 21:13:15;;;;;;;2.08;0.77;;;;;;;9.69;74.87;98803.47;10384025;28;20048;-70
2023/04/12 21:18:19;;;;;;;2.15;0.77;;;;;;;9.58;75.50;98809.84;10388380;28;20061;-69
2023/04/12 21:23:22;;;;;;;2.27;0.57;;;;;;;9.31;76.29;98790.34;10387669;28;20063;-71
2023/04/12 21:28:24;;;;;;;2.03;0.60;;;;;;;9.26;76.56;98811.19;10404342;28;20129;-68
2023/04/12 21:33:25;;;;;;;1.98;0.60;;;;;;;9.20;77.64;98804.69;10389639;28;20323;-70
2023/04/12 21:38:27;;;;;;;1.35;0.45;;;;;;;9.08;77.66;98820.94;10388027;28;20060;-71
2023/04/12 21:43:28;;;;;;;1.80;0.47;;;;;;;8.99;77.83;98809.41;10391066;28;20060;-69
2023/04/12 21:48:30;;;;;;;1.20;0.30;;;;;;;9.09;77.51;98820.81;10391938;28;20475;-71
2023/04/12 21:53:32;;;;;;;1.08;0.60;;;;;;;9.10;77.50;98827.78;10387536;28;20239;-68
2023/04/12 21:58:33;;;;;;;2.17;0.63;;;;;;;9.09;76.90;98834.06;10384607;28;20056;-68
2023/04/12 22:03:35;;;;;;;2.20;0.60;;;;;;;8.99;77.25;98842.09;10386252;28;20126;-69
2023/04/12 22:08:41;;;;;;;0.73;0.30;;;;;;;8.93;77.91;98837.41;10382765;28;20288;-68
2023/04/12 22:13:45;;;;;;;1.38;0.82;;;;;;;8.95;77.44;98855.81;10383180;28;20484;-70
2023/04/12 22:18:48;;;;;;;0.93;0.45;;;;;;;8.84;76.96;98847.06;10382108;28;20049;-68
2023/04/12 22:23:53;;;;;;;1.50;0.50;;;;;;;8.72;76.78;98829.69;10388478;28;20424;-69
2023/04/12 22:28:57;;;;;;;1.60;0.40;;;;;;;8.75;76.86;98845.28;10394379;28;20087;-68
2023/04/12 22:34:00;;;;;;;1.23;0.40;;;;;;;8.72;75.59;98839.44;10393738;28;20203;-70
2023/04/12 22:39:03;;;;;;;1.70;0.50;;;;;;;8.71;75.14;98843.91;10392891;28;20089;-71
2023/04/12 22:44:06;;;;;;;3.08;0.50;;;;;;;8.70;74.71;98842.22;10383986;28;20295;-70
2023/04/12 22:49:07;;;;;;;0.98;0.65;;;;;;;8.73;74.65;98847.25;10389089;28;20567;-69
2023/04/12 22:54:09;;;;;;;1.13;0.30;;;;;;;8.71;75.29;98849.22;10410454;28;20330;-72
2023/04/12 22:59:15;;;;;;;1.38;0.63;;;;;;;8.71;74.34;98849.22;10413276;28;20593;-72
2023/04/12 23:04:17;;;;;;;1.75;0.57;;;;;;;8.64;74.36;98842.81;10407824;28;20045;-73
2023/04/12 23:09:19;;;;;;;0.60;0.28;;;;;;;8.60;74.52;98838.78;10409436;28;20118;-72
2023/04/12 23:14:21;;;;;;;0.75;0.20;;;;;;;8.61;75.32;98832.50;10407656;28;20500;-70
2023/04/12 23:19:23;;;;;;;0.85;0.32;;;;;;;8.58;74.75;98838.91;10406057;28;20056;-73
2023/04/12 23:24:24;;;;;;;1.80;0.32;;;;;;;8.53;74.48;98842.97;10408257;28;20056;-70
2023/04/12 23:29:26;;;;;;;1.27;0.40;;;;;;;8.48;74.29;98833.66;10400613;28;20482;-72
2023/04/12 23:34:29;;;;;;;1.65;0.50;;;;;;;8.40;74.58;98822.91;10414627;28;20056;-72